Time;durP1;ratioP1;P1;durP2;ratioP2;P2;SDS_P1;SDS_P2;PMS_P1;PMS_P2;Temp;Humidity;BMP_temperature;BMP_pressure;BME280_temperature;BME280_humidity;BME280_pressure;Samples;Min_cycle;Max_cycle;Signal;HPM_P1;HPM_P2
2023/12/28 00:01:33;;;;;;;;;9.00;6.33;;;;;11.73;71.14;101131.44;4994023;28;45723;-66
2023/12/28 00:04:01;;;;;;;;;7.67;7.67;;;;;11.76;71.36;101131.44;4994480;28;45673;-65
2023/12/28 00:06:31;;;;;;;;;6.67;5.00;;;;;11.78;70.78;101123.56;4994017;28;46158;-63
2023/12/28 00:08:57;;;;;;;;;8.33;5.33;;;;;11.75;70.75;101131.44;4994269;28;45411;-66
2023/12/28 00:11:25;;;;;;;;;10.67;8.33;;;;;11.76;71.21;101120.94;4993607;28;45589;-68
2023/12/28 00:13:52;;;;;;;;;6.67;6.67;;;;;11.69;70.67;101119.16;4994478;28;45582;-63
2023/12/28 00:16:19;;;;;;;;;9.33;6.33;;;;;11.75;71.11;101140.19;4993785;28;45458;-64
2023/12/28 00:18:45;;;;;;;;;10.00;7.50;;;;;11.71;71.37;101130.53;4994601;28;45403;-63
2023/12/28 00:21:18;;;;;;;;;9.00;8.00;;;;;11.71;71.49;101132.28;4996228;28;45522;-63
2023/12/28 00:23:44;;;;;;;;;7.67;6.33;;;;;11.73;71.30;101141.94;4994860;28;46612;-64
2023/12/28 00:26:09;;;;;;;;;8.33;7.33;;;;;11.72;71.06;101144.53;4989970;28;45574;-63
2023/12/28 00:28:35;;;;;;;;;6.67;5.67;;;;;11.70;71.38;101130.53;4982674;28;45478;-64
2023/12/28 00:31:01;;;;;;;;;7.33;6.00;;;;;11.72;71.52;101134.94;4990248;28;46552;-65
2023/12/28 00:33:26;;;;;;;;;6.00;6.00;;;;;11.69;71.37;101129.66;4989997;28;45542;-64
2023/12/28 00:35:55;;;;;;;;;7.00;7.00;;;;;11.81;71.30;101140.19;4990351;28;45427;-63
2023/12/28 00:38:21;;;;;;;;;7.67;6.33;;;;;11.73;71.24;101120.94;4991923;28;45448;-64
2023/12/28 00:40:47;;;;;;;;;9.25;6.25;;;;;11.76;71.34;101126.19;4989139;28;45743;-63
2023/12/28 00:43:17;;;;;;;;;7.00;7.00;;;;;11.77;71.56;101135.81;4986821;28;45450;-66
2023/12/28 00:45:42;;;;;;;;;11.67;6.33;;;;;11.84;71.50;101147.19;4986812;28;45479;-64
2023/12/28 00:48:08;;;;;;;;;7.67;6.33;;;;;11.79;71.66;101147.22;4988135;28;45305;-63
2023/12/28 00:50:33;;;;;;;;;6.25;6.25;;;;;11.73;71.64;101131.44;4986991;28;45325;-65
2023/12/28 00:52:59;;;;;;;;;10.33;7.00;;;;;11.75;71.35;101142.81;4990163;28;46256;-64
2023/12/28 00:55:28;;;;;;;;;10.67;8.67;;;;;11.80;71.24;101127.94;4985279;28;45364;-64
2023/12/28 00:57:53;;;;;;;;;6.00;5.67;;;;;11.67;71.06;101113.94;4989638;28;45443;-64
2023/12/28 01:00:20;;;;;;;;;8.33;8.00;;;;;11.63;71.87;101106.03;4985561;28;45487;-67
2023/12/28 01:02:49;;;;;;;;;9.00;6.00;;;;;11.67;71.10;101111.31;4986670;28;47673;-63
2023/12/28 01:05:14;;;;;;;;;9.00;6.33;;;;;11.83;71.48;101132.34;4987135;28;45395;-63
2023/12/28 01:07:40;;;;;;;;;8.25;7.50;;;;;11.45;71.77;101075.34;4986139;28;46342;-67
2023/12/28 01:10:07;;;;;;;;;8.00;8.00;;;;;11.53;71.87;101096.34;4988250;28;45795;-63
2023/12/28 01:12:33;;;;;;;;;10.67;6.67;;;;;11.74;71.98;101129.69;4988118;28;46707;-64
2023/12/28 01:15:04;;;;;;;;;8.33;6.33;;;;;11.78;72.46;101144.56;4996640;28;45434;-62
2023/12/28 01:17:30;;;;;;;;;9.50;6.25;;;;;11.77;71.84;101121.81;4983847;28;45529;-64
2023/12/28 01:19:55;;;;;;;;;6.00;5.67;;;;;11.77;72.24;101141.06;4988598;28;45342;-64
2023/12/28 01:22:27;;;;;;;;;7.00;6.33;;;;;11.60;72.18;101117.41;4984964;28;45521;-64
2023/12/28 01:24:53;;;;;;;;;9.50;7.00;;;;;11.75;72.30;101150.69;4999030;28;45669;-65
2023/12/28 01:27:21;;;;;;;;;4.75;4.75;;;;;11.65;72.82;101141.91;4999328;28;45427;-63
2023/12/28 01:29:47;;;;;;;;;6.75;6.25;;;;;11.69;72.54;101153.28;4999435;28;45582;-64
2023/12/28 01:32:12;;;;;;;;;11.75;9.00;;;;;11.71;72.62;101154.16;4998506;28;46102;-63
2023/12/28 01:34:40;;;;;;;;;10.00;6.50;;;;;11.65;73.33;101148.88;4998254;28;45736;-63
2023/12/28 01:37:10;;;;;;;;;7.25;7.25;;;;;11.56;73.08;101123.50;4999272;28;45295;-64
2023/12/28 01:39:39;;;;;;;;;12.25;9.00;;;;;11.60;73.65;101129.63;5000069;28;45465;-65
2023/12/28 01:42:05;;;;;;;;;9.75;7.25;;;;;11.59;73.49;101139.25;4999997;28;46675;-64
2023/12/28 01:44:32;;;;;;;;;8.25;6.00;;;;;11.49;73.14;101121.72;4996243;28;45594;-63
2023/12/28 01:46:58;;;;;;;;;9.75;7.25;;;;;11.56;73.78;101135.75;4997651;28;45583;-64
2023/12/28 01:49:25;;;;;;;;;11.50;7.50;;;;;11.62;73.91;101154.97;4998430;28;45348;-64
2023/12/28 01:51:51;;;;;;;;;9.75;6.00;;;;;11.59;73.76;101154.09;4998527;28;46189;-64
2023/12/28 01:54:17;;;;;;;;;7.50;5.75;;;;;11.44;74.12;101134.81;4998583;28;45476;-65
2023/12/28 01:56:44;;;;;;;;;9.25;8.00;;;;;11.54;74.39;101161.97;4997179;28;45456;-68
2023/12/28 01:59:11;;;;;;;;;7.25;7.25;;;;;11.41;74.29;101139.16;4997395;28;45523;-69
2023/12/28 02:01:37;;;;;;;;;8.75;8.25;;;;;10.91;74.91;101055.88;4998229;28;45513;-72
2023/12/28 02:04:03;;;;;;;;;10.25;4.75;;;;;11.49;74.78;101157.56;4978494;28;45690;-70
2023/12/28 02:06:29;;;;;;;;;8.50;7.50;;;;;11.43;74.97;101147.91;4995235;28;45503;-71
2023/12/28 02:08:54;;;;;;;;;6.75;3.25;;;;;11.28;74.93;101132.97;5000934;28;45396;-65
2023/12/28 02:11:20;;;;;;;;;8.00;5.00;;;;;11.62;74.64;101183.84;5003478;28;45739;-70
2023/12/28 02:13:53;;;;;;;;;9.00;6.25;;;;;11.57;74.81;101176.84;4998629;28;45442;-70
2023/12/28 02:16:36;;;;;;;;;8.00;5.00;;;;;11.61;75.30;101179.47;4985092;28;45669;-69
2023/12/28 02:19:18;;;;;;;;;9.50;7.50;;;;;11.60;74.86;101176.84;5002558;28;45427;-66
2023/12/28 02:21:45;;;;;;;;;7.33;6.00;;;;;11.28;75.32;101130.34;4998261;28;45777;-67
2023/12/28 02:24:11;;;;;;;;;8.50;6.50;;;;;11.51;75.32;101171.53;4998942;28;45347;-66
2023/12/28 02:26:36;;;;;;;;;7.25;5.75;;;;;11.61;75.16;101183.84;4985970;28;45383;-64
2023/12/28 02:29:12;;;;;;;;;9.00;6.33;;;;;11.56;75.75;101178.59;4998368;28;45558;-67
2023/12/28 02:31:47;;;;;;;;;4.75;4.75;;;;;11.57;75.99;101179.47;4995946;28;45550;-65
2023/12/28 02:34:33;;;;;;;;;6.67;6.67;;;;;11.59;75.89;101188.22;4986851;28;45499;-64
2023/12/28 02:37:01;;;;;;;;;8.00;6.00;;;;;11.69;75.42;101195.25;4998092;28;45518;-65
2023/12/28 02:39:30;;;;;;;;;10.67;6.67;;;;;11.57;75.65;101175.09;4998046;28;45244;-63
2023/12/28 02:41:56;;;;;;;;;5.00;5.00;;;;;11.37;74.97;101140.03;4997476;28;45609;-66
2023/12/28 02:44:22;;;;;;;;;9.33;6.00;;;;;11.76;74.95;101193.53;4998007;28;45489;-64
2023/12/28 02:46:48;;;;;;;;;8.33;7.33;;;;;11.39;75.25;101128.66;4996381;28;45542;-64
2023/12/28 02:49:18;;;;;;;;;6.33;6.33;;;;;11.71;75.23;101184.78;4997784;28;45393;-63
2023/12/28 02:51:43;;;;;;;;;9.00;6.25;;;;;11.75;75.33;101187.41;4997140;28;45551;-64
2023/12/28 02:54:09;;;;;;;;;5.75;5.25;;;;;11.73;75.46;101183.03;4996983;28;45408;-64
2023/12/28 02:56:34;;;;;;;;;6.33;5.00;;;;;11.48;76.12;101158.41;4997812;28;45262;-66
2023/12/28 02:59:00;;;;;;;;;7.33;6.33;;;;;11.62;76.06;101186.47;4997705;28;45478;-64
2023/12/28 03:01:25;;;;;;;;;7.50;7.25;;;;;11.57;76.82;101192.56;4997477;28;46197;-64
2023/12/28 03:03:51;;;;;;;;;7.50;7.25;;;;;11.52;76.50;101195.16;4997585;28;45313;-64
2023/12/28 03:06:16;;;;;;;;;6.00;6.00;;;;;11.46;77.14;101197.78;4997596;28;45597;-63
2023/12/28 03:08:42;;;;;;;;;8.00;6.00;;;;;11.38;77.29;101195.09;4997448;28;45485;-63
2023/12/28 03:11:08;;;;;;;;;7.67;7.67;;;;;11.26;77.33;101179.28;4997205;28;45496;-63
2023/12/28 03:13:34;;;;;;;;;6.67;4.67;;;;;11.11;77.37;101143.38;4997395;28;45892;-64
2023/12/28 03:16:00;;;;;;;;;10.00;8.33;;;;;11.32;77.13;101176.72;4997316;28;45466;-63
2023/12/28 03:18:25;;;;;;;;;8.67;8.00;;;;;11.37;77.16;101184.59;4997713;28;45480;-65
2023/12/28 03:20:51;;;;;;;;;7.25;7.25;;;;;11.37;77.42;101182.84;4996871;28;46028;-65
2023/12/28 03:23:16;;;;;;;;;9.67;6.33;;;;;11.31;77.51;101174.06;4997238;28;45439;-65
2023/12/28 03:25:45;;;;;;;;;4.67;4.67;;;;;11.23;77.61;101159.16;4996915;28;45455;-64
2023/12/28 03:28:10;;;;;;;;;10.50;7.25;;;;;11.30;77.66;101178.44;4996944;28;45581;-66
2023/12/28 03:30:36;;;;;;;;;5.67;5.00;;;;;11.33;77.25;101175.81;4996864;28;45573;-63
2023/12/28 03:33:01;;;;;;;;;5.50;5.00;;;;;11.30;77.45;101170.56;4996736;28;45479;-63
2023/12/28 03:35:27;;;;;;;;;8.00;6.33;;;;;11.03;76.70;101132.84;4998108;28;45316;-65
2023/12/28 03:37:54;;;;;;;;;6.67;6.33;;;;;11.35;77.02;101189.84;4998678;28;45264;-65
2023/12/28 03:40:20;;;;;;;;;8.50;5.25;;;;;11.39;76.70;101180.22;4998266;28;46090;-64
2023/12/28 03:42:45;;;;;;;;;10.00;7.33;;;;;11.48;77.01;101189.91;4997810;28;45509;-64
2023/12/28 03:45:11;;;;;;;;;3.50;3.25;;;;;11.40;76.97;101180.25;4996642;28;45284;-63
2023/12/28 03:47:40;;;;;;;;;9.25;6.00;;;;;11.27;77.02;101157.47;4997392;28;45674;-63
2023/12/28 03:50:06;;;;;;;;;8.75;6.75;;;;;11.25;76.92;101149.56;4996830;28;46153;-66
2023/12/28 03:52:35;;;;;;;;;6.33;6.33;;;;;11.40;76.95;101167.13;4997067;28;45501;-66
2023/12/28 03:55:01;;;;;;;;;9.50;7.50;;;;;11.51;76.54;101190.81;4996819;28;45462;-64
2023/12/28 03:57:27;;;;;;;;;8.25;7.25;;;;;11.26;76.47;101137.31;4997525;28;45508;-64
2023/12/28 03:59:53;;;;;;;;;8.67;6.33;;;;;11.24;77.02;101134.69;4997677;28;45689;-63
2023/12/28 04:02:20;;;;;;;;;10.33;7.33;;;;;11.24;76.83;101142.56;4996792;28;45310;-64
2023/12/28 04:04:45;;;;;;;;;8.25;6.75;;;;;11.41;77.04;101184.63;4996316;28;45498;-66
2023/12/28 04:07:11;;;;;;;;;10.75;8.00;;;;;11.08;76.96;101113.63;4999002;28;45481;-64
2023/12/28 04:09:36;;;;;;;;;6.25;6.25;;;;;11.37;77.20;101169.75;4999971;28;45700;-64
2023/12/28 04:12:05;;;;;;;;;8.25;5.75;;;;;11.07;77.39;101123.22;5000208;28;45280;-65
2023/12/28 04:14:31;;;;;;;;;6.25;6.25;;;;;11.29;77.27;101168.81;5000132;28;45324;-64
2023/12/28 04:16:57;;;;;;;;;7.50;7.00;;;;;11.01;77.27;101116.22;5000520;28;45332;-65
2023/12/28 04:19:23;;;;;;;;;8.00;6.50;;;;;11.28;77.42;101156.56;4999587;28;46098;-64
2023/12/28 04:21:49;;;;;;;;;9.00;7.00;;;;;11.35;77.51;101176.72;5000116;28;45868;-65
2023/12/28 04:24:15;;;;;;;;;8.00;7.33;;;;;11.07;77.48;101125.00;4998514;28;45542;-66
2023/12/28 04:26:40;;;;;;;;;7.67;5.33;;;;;11.25;77.04;101154.81;5000032;28;45490;-64
2023/12/28 04:29:07;;;;;;;;;11.00;7.25;;;;;11.31;77.49;101174.94;4999674;28;45838;-71
2023/12/28 04:31:32;;;;;;;;;7.75;6.25;;;;;11.30;77.52;101167.09;4999676;28;45459;-66
2023/12/28 04:33:58;;;;;;;;;6.50;5.25;;;;;11.25;77.60;101173.16;5000375;28;45434;-70
2023/12/28 04:36:28;;;;;;;;;7.00;5.25;;;;;11.16;78.07;101173.09;4999078;28;45525;-69
2023/12/28 04:38:54;;;;;;;;;7.67;6.67;;;;;11.00;77.55;101140.66;5000253;28;45700;-71
2023/12/28 04:41:20;;;;;;;;;9.33;5.67;;;;;11.06;78.25;101160.81;4999798;28;45565;-71
2023/12/28 04:43:49;;;;;;;;;9.50;6.75;;;;;11.08;77.95;101181.78;5000181;28;45549;-71
2023/12/28 04:46:19;;;;;;;;;11.25;7.00;;;;;11.04;78.26;101180.88;5000385;28;45311;-68
2023/12/28 04:48:45;;;;;;;;;6.75;6.75;;;;;11.00;78.65;101179.97;4999912;28;46211;-68
2023/12/28 04:51:10;;;;;;;;;7.75;6.25;;;;;10.88;78.63;101156.31;5000030;28;45498;-71
2023/12/28 04:53:36;;;;;;;;;7.50;5.75;;;;;10.95;78.82;101179.06;4999516;28;45668;-67
2023/12/28 04:56:02;;;;;;;;;8.00;5.75;;;;;10.74;78.80;101135.22;4999630;28;45352;-63
2023/12/28 04:58:28;;;;;;;;;7.75;3.25;;;;;10.91;78.99;101158.06;4999518;28;45489;-64
2023/12/28 05:00:54;;;;;;;;;6.25;5.00;;;;;10.93;79.27;101164.19;4999593;28;45494;-66
2023/12/28 05:03:23;;;;;;;;;11.50;7.50;;;;;10.92;79.18;101165.09;5000328;28;45494;-69
2023/12/28 05:05:49;;;;;;;;;8.25;6.50;;;;;10.94;78.78;101169.47;5001982;28;45497;-64
2023/12/28 05:08:15;;;;;;;;;11.25;6.75;;;;;10.61;79.23;101117.69;5003437;28;45509;-70
2023/12/28 05:10:45;;;;;;;;;9.00;8.25;;;;;10.80;79.10;101164.13;5006952;28;45270;-66
2023/12/28 05:13:10;;;;;;;;;6.25;5.25;;;;;10.82;79.15;101161.53;5005521;28;45362;-64
2023/12/28 05:15:36;;;;;;;;;10.25;7.25;;;;;10.88;79.48;101172.03;5002887;28;45471;-65
2023/12/28 05:18:02;;;;;;;;;10.50;9.00;;;;;10.78;79.60;101152.75;4999605;28;46228;-63
2023/12/28 05:20:28;;;;;;;;;9.50;6.75;;;;;10.83;79.60;101176.34;4999713;28;45309;-68
2023/12/28 05:22:53;;;;;;;;;8.00;6.75;;;;;10.75;79.97;101173.69;4989626;28;45431;-64
2023/12/28 05:25:19;;;;;;;;;6.75;4.75;;;;;10.82;79.72;101182.47;4990170;28;45440;-64
2023/12/28 05:27:51;;;;;;;;;9.50;6.25;;;;;10.56;79.97;101141.22;4999368;28;46106;-64
2023/12/28 05:30:20;;;;;;;;;8.50;8.50;;;;;10.81;80.41;101175.47;4982146;28;46086;-64
2023/12/28 05:32:46;;;;;;;;;8.75;7.50;;;;;10.76;80.47;101171.94;4987972;28;45482;-65
2023/12/28 05:35:15;;;;;;;;;9.75;7.50;;;;;10.31;80.09;101097.34;4986198;28;45389;-63
2023/12/28 05:37:41;;;;;;;;;9.50;6.50;;;;;10.67;80.01;101158.75;5003125;28;46321;-65
2023/12/28 05:40:09;;;;;;;;;8.25;6.00;;;;;9.87;80.45;101020.16;4992307;28;45336;-65
2023/12/28 05:42:38;;;;;;;;;9.50;8.25;;;;;10.76;80.41;101164.94;4988043;28;45480;-63
2023/12/28 05:45:05;;;;;;;;;8.00;8.00;;;;;10.78;80.87;101170.22;4984768;28;45542;-64
2023/12/28 05:47:31;;;;;;;;;8.00;7.50;;;;;10.63;80.88;101156.97;4998882;28;45650;-65
2023/12/28 05:49:57;;;;;;;;;12.00;8.75;;;;;10.74;81.06;101173.66;4984527;28;45444;-64
2023/12/28 05:52:23;;;;;;;;;6.75;6.25;;;;;10.72;80.79;101175.38;4990920;28;45432;-64
2023/12/28 05:54:48;;;;;;;;;6.00;6.00;;;;;10.75;80.83;101178.06;4989638;28;45395;-64
2023/12/28 05:57:17;;;;;;;;;8.50;6.25;;;;;10.71;80.51;101178.88;4983990;28;45413;-63
2023/12/28 05:59:43;;;;;;;;;5.00;4.50;;;;;10.79;80.87;101185.91;4986456;28;45509;-64
2023/12/28 06:02:09;;;;;;;;;8.25;5.75;;;;;10.76;80.33;101169.31;4991140;28;45311;-65
2023/12/28 06:04:35;;;;;;;;;9.50;6.50;;;;;10.70;80.76;101172.78;4988950;28;45489;-65
2023/12/28 06:07:02;;;;;;;;;9.00;5.75;;;;;10.78;80.40;101188.56;4987636;28;45577;-64
2023/12/28 06:09:28;;;;;;;;;7.50;6.75;;;;;10.64;80.63;101175.31;4996565;28;45357;-65
2023/12/28 06:11:54;;;;;;;;;8.25;7.00;;;;;10.80;80.34;101194.69;4987522;28;45649;-65
2023/12/28 06:14:19;;;;;;;;;8.25;4.50;;;;;10.80;80.49;101194.69;4993170;28;45613;-63
2023/12/28 06:16:45;;;;;;;;;7.75;5.50;;;;;10.79;80.27;101192.91;4986340;28;46101;-64
2023/12/28 06:19:12;;;;;;;;;12.00;10.25;;;;;10.77;80.35;101189.41;4997615;28;45545;-64
2023/12/28 06:21:38;;;;;;;;;14.50;12.50;;;;;10.86;80.06;101199.97;4991673;28;45478;-64
2023/12/28 06:24:07;;;;;;;;;6.25;5.75;;;;;10.73;79.86;101182.41;4990895;28;45819;-65
2023/12/28 06:26:41;;;;;;;;;9.50;9.00;;;;;10.83;80.28;101197.31;4997630;28;47683;-65
2023/12/28 06:29:07;;;;;;;;;7.25;6.00;;;;;10.86;80.18;101215.69;4999004;28;45501;-65
2023/12/28 06:31:39;;;;;;;;;12.25;9.00;;;;;10.72;80.23;101201.59;5000393;28;45376;-65
2023/12/28 06:34:06;;;;;;;;;8.25;4.75;;;;;10.83;80.10;101216.53;4997820;28;46617;-66
2023/12/28 06:36:32;;;;;;;;;7.25;6.50;;;;;10.84;80.31;101212.16;4997283;28;46216;-65
2023/12/28 06:39:02;;;;;;;;;8.75;6.00;;;;;10.67;80.11;101180.59;4996169;28;45578;-64
2023/12/28 06:41:28;;;;;;;;;8.25;6.75;;;;;10.82;80.09;101219.16;4998689;28;45385;-63
2023/12/28 06:43:54;;;;;;;;;8.25;7.25;;;;;10.82;80.43;101217.41;4998190;28;45455;-66
2023/12/28 06:46:20;;;;;;;;;6.75;6.00;;;;;10.79;80.24;101224.34;4984874;28;45829;-64
2023/12/28 06:48:49;;;;;;;;;7.75;6.50;;;;;10.53;81.19;101201.41;4996158;28;45465;-64
2023/12/28 06:51:19;;;;;;;;;7.00;6.75;;;;;10.72;81.17;101222.53;4997185;28;45340;-64
2023/12/28 06:53:46;;;;;;;;;9.75;6.25;;;;;10.61;81.26;101212.84;4997717;28;45455;-63
2023/12/28 06:56:11;;;;;;;;;11.25;5.25;;;;;10.65;81.72;101223.34;4986118;28;45274;-64
2023/12/28 06:58:37;;;;;;;;;7.00;3.25;;;;;10.55;81.88;101211.91;4993876;28;45384;-65
2023/12/28 07:01:03;;;;;;;;;6.50;5.25;;;;;10.63;81.80;101219.84;4997240;28;45377;-65
2023/12/28 07:03:32;;;;;;;;;7.00;7.00;;;;;10.63;81.52;101214.59;4997527;28;45594;-64
2023/12/28 07:05:58;;;;;;;;;8.50;8.00;;;;;10.64;81.94;101217.25;4994542;28;46572;-65
2023/12/28 07:08:23;;;;;;;;;12.50;6.50;;;;;10.68;81.31;101221.66;4998687;28;45517;-64
2023/12/28 07:10:49;;;;;;;;;7.75;7.00;;;;;10.68;81.81;101221.66;4998208;28;45284;-72
2023/12/28 07:13:14;;;;;;;;;11.00;6.75;;;;;10.71;81.79;101224.28;4981806;28;45813;-72
2023/12/28 07:15:40;;;;;;;;;12.75;9.50;;;;;10.69;81.96;101222.53;4981123;28;46283;-71
2023/12/28 07:18:06;;;;;;;;;8.00;7.25;;;;;10.68;81.52;101228.63;4988455;28;45742;-64
2023/12/28 07:20:31;;;;;;;;;10.25;8.25;;;;;10.72;81.61;101230.41;4986010;28;45432;-66
2023/12/28 07:22:57;;;;;;;;;8.75;6.75;;;;;10.74;81.57;101229.56;4987173;28;45344;-69
2023/12/28 07:25:29;;;;;;;;;8.75;7.75;;;;;10.65;81.96;101212.88;4992819;28;45503;-70
2023/12/28 07:27:58;;;;;;;;;10.50;9.00;;;;;10.69;81.86;101218.16;4989413;28;46160;-69
2023/12/28 07:30:24;;;;;;;;;13.00;8.00;;;;;10.69;82.18;101223.41;4992094;28;45483;-67
2023/12/28 07:32:50;;;;;;;;;9.50;9.25;;;;;10.72;82.38;101233.91;4990928;28;45547;-67
2023/12/28 07:35:15;;;;;;;;;12.75;8.00;;;;;10.72;81.97;101243.50;4986466;28;45618;-66
2023/12/28 07:37:41;;;;;;;;;13.75;7.25;;;;;10.71;82.48;101236.53;4986105;28;45481;-65
2023/12/28 07:40:07;;;;;;;;;7.50;6.50;;;;;10.75;82.24;101231.31;4979707;28;45639;-64
2023/12/28 07:42:33;;;;;;;;;8.50;8.25;;;;;10.69;82.71;101207.69;4986057;28;45444;-64
2023/12/28 07:44:58;;;;;;;;;9.50;8.00;;;;;10.66;82.43;101212.03;4986554;28;46728;-64
2023/12/28 07:47:28;;;;;;;;;9.75;7.00;;;;;10.73;82.08;101213.84;4982893;28;45509;-64
2023/12/28 07:49:54;;;;;;;;;8.25;6.00;;;;;10.88;82.00;101234.91;4983012;28;45333;-66
2023/12/28 07:52:20;;;;;;;;;7.00;7.00;;;;;10.88;82.46;101241.91;4987326;28;45438;-65
2023/12/28 07:54:46;;;;;;;;;9.75;7.75;;;;;10.40;81.91;101165.50;4986341;28;46290;-68
2023/12/28 07:57:12;;;;;;;;;11.00;10.25;;;;;10.66;82.25;101197.19;4980168;28;45682;-66
2023/12/28 07:59:43;;;;;;;;;12.25;9.25;;;;;10.94;82.26;101236.69;4994077;28;45550;-66
2023/12/28 08:02:09;;;;;;;;;11.75;10.25;;;;;10.74;82.09;101200.72;4980186;28;45502;-65
2023/12/28 08:04:35;;;;;;;;;9.00;6.00;;;;;10.92;82.34;101236.72;4993633;28;45506;-65
2023/12/28 08:07:08;;;;;;;;;10.75;7.00;;;;;10.96;82.34;101238.50;4997924;28;45427;-67
2023/12/28 08:09:35;;;;;;;;;9.75;6.75;;;;;10.98;82.23;101238.50;4995760;28;45677;-65
2023/12/28 08:12:02;;;;;;;;;6.33;6.33;;;;;10.97;81.99;101239.38;4996364;28;45454;-67
2023/12/28 08:14:28;;;;;;;;;8.25;6.75;;;;;10.60;81.94;101187.50;4992793;28;45513;-64
2023/12/28 08:16:53;;;;;;;;;11.25;9.00;;;;;10.34;82.57;101145.38;4986579;28;45343;-64
2023/12/28 08:19:19;;;;;;;;;8.67;6.67;;;;;10.92;82.35;101241.97;4995756;28;45400;-64
2023/12/28 08:21:44;;;;;;;;;13.00;7.00;;;;;10.73;82.51;101206.84;4988994;28;45343;-65
2023/12/28 08:24:10;;;;;;;;;7.00;6.50;;;;;10.96;82.26;101242.84;4989403;28;45557;-64
2023/12/28 08:26:36;;;;;;;;;7.25;4.50;;;;;11.00;82.69;101256.00;4984188;28;45438;-63
2023/12/28 08:29:07;;;;;;;;;9.25;7.25;;;;;10.81;82.06;101220.88;4996420;28;45349;-64
2023/12/28 08:31:33;;;;;;;;;8.00;6.00;;;;;10.74;82.40;101203.34;4994850;28;45511;-66
2023/12/28 08:33:58;;;;;;;;;6.50;4.50;;;;;11.12;82.06;101259.59;4992920;28;47375;-64
2023/12/28 08:36:24;;;;;;;;;8.25;6.25;;;;;11.18;81.82;101272.75;4986539;28;46012;-68
2023/12/28 08:38:50;;;;;;;;;7.50;4.25;;;;;11.17;81.82;101258.75;4992729;28;45514;-67
2023/12/28 08:41:33;;;;;;;;;9.33;7.67;;;;;10.90;81.50;101211.38;4998604;28;45561;-64
2023/12/28 08:44:01;;;;;;;;;7.25;7.25;;;;;11.05;81.18;101227.19;4985374;28;46384;-65
2023/12/28 08:46:28;;;;;;;;;7.00;4.00;;;;;11.19;80.86;101240.41;4996556;28;45454;-67
2023/12/28 08:48:54;;;;;;;;;4.33;4.33;;;;;11.20;81.42;101256.16;4982472;28;45598;-64
2023/12/28 08:51:22;;;;;;;;;7.00;6.00;;;;;10.79;81.32;101183.31;4996036;28;45332;-66
2023/12/28 08:53:48;;;;;;;;;7.67;4.00;;;;;11.17;81.43;101268.38;4997728;28;46406;-65
2023/12/28 08:56:20;;;;;;;;;3.00;3.00;;;;;10.87;81.14;101217.47;4998560;28;45293;-65
2023/12/28 08:58:49;;;;;;;;;6.25;5.00;;;;;10.99;81.03;101228.03;4997497;28;45533;-66
2023/12/28 09:01:21;;;;;;;;;5.25;5.25;;;;;11.19;81.49;101271.88;4998364;28;45360;-65
2023/12/28 09:03:51;;;;;;;;;7.25;5.75;;;;;10.79;81.05;101195.53;4995746;28;45445;-67
2023/12/28 09:06:20;;;;;;;;;7.25;5.50;;;;;10.97;80.70;101221.91;4996504;28;45236;-66
2023/12/28 09:08:48;;;;;;;;;7.25;5.75;;;;;11.26;80.83;101247.47;4988422;28;45460;-66
2023/12/28 09:11:18;;;;;;;;;9.00;6.00;;;;;11.49;79.91;101266.00;4996686;28;45469;-66
2023/12/28 09:13:44;;;;;;;;;7.33;5.33;;;;;11.62;79.87;101288.78;4996435;28;45352;-68
2023/12/28 09:16:17;;;;;;;;;6.00;5.67;;;;;11.53;78.86;101235.38;5015100;28;45487;-65
2023/12/28 09:18:48;;;;;;;;;8.00;5.00;;;;;11.64;78.04;101247.72;4995218;28;45544;-67
2023/12/28 09:21:14;;;;;;;;;7.33;6.00;;;;;11.43;77.86;101214.34;4991479;28;45372;-67
2023/12/28 09:23:43;;;;;;;;;5.33;4.33;;;;;11.81;77.90;101281.91;4993180;28;45478;-67
2023/12/28 09:26:12;;;;;;;;;6.00;5.00;;;;;11.90;77.21;101286.38;4997410;28;45452;-67
2023/12/28 09:28:44;;;;;;;;;5.67;4.67;;;;;11.66;77.02;101250.34;4992987;28;44822;-69
2023/12/28 09:31:10;;;;;;;;;8.00;6.00;;;;;11.86;76.96;101289.81;4994724;28;45495;-66
2023/12/28 09:33:36;;;;;;;;;8.67;6.00;;;;;11.70;77.55;101257.38;4991326;28;45432;-70
2023/12/28 09:36:20;;;;;;;;;6.33;5.00;;;;;11.85;77.07;101282.81;4994658;28;45359;-68
2023/12/28 09:38:45;;;;;;;;;5.00;5.00;;;;;11.13;76.75;101151.22;4994745;28;45585;-70
2023/12/28 09:41:16;;;;;;;;;7.33;5.33;;;;;11.48;76.34;101210.88;4995673;28;45414;-70
2023/12/28 09:44:05;;;;;;;;;7.67;5.33;;;;;11.71;76.24;101260.88;4994279;28;45348;-70
2023/12/28 09:46:32;;;;;;;;;11.33;7.67;;;;;11.84;75.86;101295.06;4991780;28;45511;-69
2023/12/28 09:49:06;;;;;;;;;7.33;6.00;;;;;11.79;76.46;101299.44;4991143;28;45340;-68
2023/12/28 09:51:32;;;;;;;;;9.00;8.33;;;;;11.64;76.42;101271.31;4993931;28;45419;-69
2023/12/28 09:54:01;;;;;;;;;8.33;7.00;;;;;11.67;76.33;101289.72;4991348;28;45518;-68
2023/12/28 09:56:27;;;;;;;;;6.67;6.00;;;;;11.68;76.62;101287.97;4994571;28;45432;-67
2023/12/28 09:58:55;;;;;;;;;6.33;6.33;;;;;11.76;76.91;101303.75;4989264;28;45455;-68
2023/12/28 10:01:21;;;;;;;;;9.00;7.00;;;;;11.58;76.81;101278.28;4996057;28;45332;-67
2023/12/28 10:03:53;;;;;;;;;6.33;5.67;;;;;11.76;76.45;101314.25;4994527;28;46576;-66
2023/12/28 10:06:21;;;;;;;;;12.33;8.00;;;;;11.52;76.50;101275.63;4986934;28;45412;-70
2023/12/28 10:08:48;;;;;;;;;6.67;5.00;;;;;11.72;76.63;101310.75;5000007;28;45388;-67
2023/12/28 10:11:16;;;;;;;;;9.33;6.33;;;;;11.66;76.64;101302.81;4998837;28;45530;-67
2023/12/28 10:13:43;;;;;;;;;10.33;7.67;;;;;11.26;76.55;101234.34;4998574;28;45415;-66
2023/12/28 10:16:10;;;;;;;;;9.00;5.67;;;;;11.69;76.85;101297.59;4998124;28;45486;-68
2023/12/28 10:18:36;;;;;;;;;10.75;7.25;;;;;11.72;76.60;101287.13;4998646;28;45506;-66
2023/12/28 10:21:02;;;;;;;;;11.00;6.75;;;;;11.95;75.75;101276.78;4999540;28;45700;-66
2023/12/28 10:23:27;;;;;;;;;9.33;7.00;;;;;12.24;74.48;101294.41;4998180;28;46174;-68
2023/12/28 10:25:59;;;;;;;;;10.00;7.67;;;;;12.14;74.47;101261.97;4997652;28;45569;-67
2023/12/28 10:28:36;;;;;;;;;9.00;7.00;;;;;12.20;74.31;101269.91;4998022;28;45431;-67
2023/12/28 10:31:03;;;;;;;;;5.67;5.67;;;;;13.03;72.11;101283.22;4997805;28;45553;-67
2023/12/28 10:33:34;;;;;;;;;7.67;6.67;;;;;13.41;70.88;101242.03;4997529;28;45528;-67
2023/12/28 10:36:01;;;;;;;;;5.67;5.00;;;;;13.87;67.67;101261.22;4997522;28;45417;-67
2023/12/28 10:38:38;;;;;;;;;7.67;7.67;;;;;13.78;68.34;101269.13;4997796;28;45591;-68
2023/12/28 10:41:06;;;;;;;;;9.00;7.00;;;;;14.56;66.80;101271.47;4996192;28;45326;-68
2023/12/28 10:43:38;;;;;;;;;4.67;4.33;;;;;14.24;65.04;101253.16;4997589;28;45509;-69
2023/12/28 10:46:13;;;;;;;;;9.00;8.67;;;;;13.98;66.27;101262.06;4998503;28;45399;-67
2023/12/28 10:48:50;;;;;;;;;8.00;7.67;;;;;13.87;66.68;101277.00;4997597;28;45494;-67
2023/12/28 10:51:18;;;;;;;;;8.33;7.33;;;;;13.57;67.08;101246.38;4998289;28;45503;-66
2023/12/28 10:53:54;;;;;;;;;6.33;6.33;;;;;13.72;66.97;101269.16;4997703;28;46189;-68
2023/12/28 10:57:03;;;;;;;;;10.33;6.00;;;;;13.79;66.71;101266.50;4998268;28;45554;-67
2023/12/28 10:59:53;;;;;;;;;6.33;6.33;;;;;14.27;65.88;101265.44;4991112;28;45745;-66
2023/12/28 11:02:24;;;;;;;;;11.00;7.33;;;;;14.24;65.18;101253.16;4996753;28;45453;-66
2023/12/28 11:04:52;;;;;;;;;7.67;6.00;;;;;14.73;64.94;101250.25;4996211;28;45442;-68
2023/12/28 11:07:20;;;;;;;;;8.33;6.33;;;;;14.60;63.79;101232.78;4996895;28;45506;-68
2023/12/28 11:09:47;;;;;;;;;7.33;7.33;;;;;13.87;64.50;101147.97;4998345;28;45498;-67
2023/12/28 11:12:18;;;;;;;;;13.33;8.33;;;;;14.51;63.52;101238.09;4998879;28;45411;-67
2023/12/28 11:14:50;;;;;;;;;8.33;7.67;;;;;14.49;63.89;101237.22;4997367;28;46075;-67
2023/12/28 11:17:16;;;;;;;;;7.67;7.33;;;;;14.32;63.98;101239.94;4997486;28;45462;-66
2023/12/28 11:19:43;;;;;;;;;8.00;8.00;;;;;14.33;64.10;101242.59;4997416;28;45397;-68
2023/12/28 11:22:09;;;;;;;;;7.33;7.33;;;;;14.09;64.08;101229.53;4985564;28;45314;-69
2023/12/28 11:24:38;;;;;;;;;7.00;5.67;;;;;14.03;64.46;101225.16;4984711;28;45317;-66
2023/12/28 11:27:06;;;;;;;;;6.67;5.00;;;;;13.85;64.63;101241.91;4981303;28;45454;-68